sensor_id;sensor_type;location;lat;lon;timestamp;temperature;humidity
43697;DHT22;29301;47.620;19.560;2023-07-22T00:01:14;20.40;94.80
43697;DHT22;29301;47.620;19.560;2023-07-22T00:03:41;20.30;94.70
43697;DHT22;29301;47.620;19.560;2023-07-22T00:06:10;20.30;94.70
43697;DHT22;29301;47.620;19.560;2023-07-22T00:08:37;20.30;94.70
43697;DHT22;29301;47.620;19.560;2023-07-22T00:11:04;20.30;94.80
43697;DHT22;29301;47.620;19.560;2023-07-22T00:13:30;20.30;94.90
43697;DHT22;29301;47.620;19.560;2023-07-22T00:15:56;20.20;94.90
43697;DHT22;29301;47.620;19.560;2023-07-22T00:18:22;20.20;94.80
43697;DHT22;29301;47.620;19.560;2023-07-22T00:20:49;20.20;94.70
43697;DHT22;29301;47.620;19.560;2023-07-22T00:23:15;20.20;94.80
43697;DHT22;29301;47.620;19.560;2023-07-22T00:25:41;20.10;95.10
43697;DHT22;29301;47.620;19.560;2023-07-22T00:28:07;20.10;95.10
43697;DHT22;29301;47.620;19.560;2023-07-22T00:30:33;20.00;95.30
43697;DHT22;29301;47.620;19.560;2023-07-22T00:33:00;19.90;95.60
43697;DHT22;29301;47.620;19.560;2023-07-22T00:35:26;20.00;95.80
43697;DHT22;29301;47.620;19.560;2023-07-22T00:37:52;20.00;95.90
43697;DHT22;29301;47.620;19.560;2023-07-22T00:40:17;19.90;96.00
43697;DHT22;29301;47.620;19.560;2023-07-22T00:42:43;19.90;96.30
43697;DHT22;29301;47.620;19.560;2023-07-22T00:45:09;19.90;96.50
43697;DHT22;29301;47.620;19.560;2023-07-22T00:47:35;19.80;96.60
43697;DHT22;29301;47.620;19.560;2023-07-22T00:50:06;19.80;96.50
43697;DHT22;29301;47.620;19.560;2023-07-22T00:52:36;19.80;96.70
43697;DHT22;29301;47.620;19.560;2023-07-22T00:55:03;19.70;96.80
43697;DHT22;29301;47.620;19.560;2023-07-22T00:57:30;19.70;96.70
43697;DHT22;29301;47.620;19.560;2023-07-22T00:59:56;19.70;96.80
43697;DHT22;29301;47.620;19.560;2023-07-22T01:02:22;19.70;97.00
43697;DHT22;29301;47.620;19.560;2023-07-22T01:04:49;19.70;96.90
43697;DHT22;29301;47.620;19.560;2023-07-22T01:07:15;19.70;96.80
43697;DHT22;29301;47.620;19.560;2023-07-22T01:09:42;19.60;96.60
43697;DHT22;29301;47.620;19.560;2023-07-22T01:12:09;19.60;96.60
43697;DHT22;29301;47.620;19.560;2023-07-22T01:14:36;19.50;96.90
43697;DHT22;29301;47.620;19.560;2023-07-22T01:17:06;19.50;97.20
43697;DHT22;29301;47.620;19.560;2023-07-22T01:19:33;19.50;97.10
43697;DHT22;29301;47.620;19.560;2023-07-22T01:22:06;19.50;97.00
43697;DHT22;29301;47.620;19.560;2023-07-22T01:24:37;19.50;97.20
43697;DHT22;29301;47.620;19.560;2023-07-22T01:27:03;19.50;97.00
43697;DHT22;29301;47.620;19.560;2023-07-22T01:29:33;19.50;96.80
43697;DHT22;29301;47.620;19.560;2023-07-22T01:31:59;19.60;96.70
43697;DHT22;29301;47.620;19.560;2023-07-22T01:34:25;19.60;96.40
43697;DHT22;29301;47.620;19.560;2023-07-22T01:36:51;19.60;96.30
43697;DHT22;29301;47.620;19.560;2023-07-22T01:39:17;19.60;96.20
43697;DHT22;29301;47.620;19.560;2023-07-22T01:41:44;19.50;96.40
43697;DHT22;29301;47.620;19.560;2023-07-22T01:44:10;19.50;96.40
43697;DHT22;29301;47.620;19.560;2023-07-22T01:46:36;19.50;96.40
43697;DHT22;29301;47.620;19.560;2023-07-22T01:49:05;19.50;96.60
43697;DHT22;29301;47.620;19.560;2023-07-22T01:51:32;19.40;96.80
43697;DHT22;29301;47.620;19.560;2023-07-22T01:53:57;19.40;96.90
43697;DHT22;29301;47.620;19.560;2023-07-22T01:56:23;19.40;97.10
43697;DHT22;29301;47.620;19.560;2023-07-22T01:58:49;19.40;97.00
43697;DHT22;29301;47.620;19.560;2023-07-22T02:01:15;19.40;97.00
43697;DHT22;29301;47.620;19.560;2023-07-22T02:03:42;19.40;97.10
43697;DHT22;29301;47.620;19.560;2023-07-22T02:06:07;19.40;97.00
43697;DHT22;29301;47.620;19.560;2023-07-22T02:08:33;19.40;97.10
43697;DHT22;29301;47.620;19.560;2023-07-22T02:11:02;19.40;97.20
43697;DHT22;29301;47.620;19.560;2023-07-22T02:13:30;19.40;97.20
43697;DHT22;29301;47.620;19.560;2023-07-22T02:15:56;19.40;97.10
43697;DHT22;29301;47.620;19.560;2023-07-22T02:18:21;19.30;96.90
43697;DHT22;29301;47.620;19.560;2023-07-22T02:20:47;19.30;96.90
43697;DHT22;29301;47.620;19.560;2023-07-22T02:23:14;19.40;97.00
43697;DHT22;29301;47.620;19.560;2023-07-22T02:25:39;19.30;96.80
43697;DHT22;29301;47.620;19.560;2023-07-22T02:28:05;19.30;96.60
43697;DHT22;29301;47.620;19.560;2023-07-22T02:30:37;19.20;96.80
43697;DHT22;29301;47.620;19.560;2023-07-22T02:33:04;19.20;96.70
43697;DHT22;29301;47.620;19.560;2023-07-22T02:35:30;19.20;96.80
43697;DHT22;29301;47.620;19.560;2023-07-22T02:37:56;19.30;96.80
43697;DHT22;29301;47.620;19.560;2023-07-22T02:40:21;19.20;96.80
43697;DHT22;29301;47.620;19.560;2023-07-22T02:42:47;19.20;96.90
43697;DHT22;29301;47.620;19.560;2023-07-22T02:45:13;19.20;96.80
43697;DHT22;29301;47.620;19.560;2023-07-22T02:47:38;19.20;96.70
43697;DHT22;29301;47.620;19.560;2023-07-22T02:50:06;19.20;96.80
43697;DHT22;29301;47.620;19.560;2023-07-22T02:52:32;19.10;96.90
43697;DHT22;29301;47.620;19.560;2023-07-22T02:55:17;19.20;97.20
43697;DHT22;29301;47.620;19.560;2023-07-22T02:57:47;19.10;97.30
43697;DHT22;29301;47.620;19.560;2023-07-22T03:00:14;19.10;97.40
43697;DHT22;29301;47.620;19.560;2023-07-22T03:02:55;19.20;97.40
43697;DHT22;29301;47.620;19.560;2023-07-22T03:05:30;19.20;97.10
43697;DHT22;29301;47.620;19.560;2023-07-22T03:07:57;19.20;97.10
43697;DHT22;29301;47.620;19.560;2023-07-22T03:10:23;19.20;97.30
43697;DHT22;29301;47.620;19.560;2023-07-22T03:12:51;19.20;97.20
43697;DHT22;29301;47.620;19.560;2023-07-22T03:15:23;19.20;97.20
43697;DHT22;29301;47.620;19.560;2023-07-22T03:17:51;19.20;97.10
43697;DHT22;29301;47.620;19.560;2023-07-22T03:20:17;19.10;97.00
43697;DHT22;29301;47.620;19.560;2023-07-22T03:22:45;19.00;97.30
43697;DHT22;29301;47.620;19.560;2023-07-22T03:25:11;19.00;97.60
43697;DHT22;29301;47.620;19.560;2023-07-22T03:27:38;19.00;97.80
43697;DHT22;29301;47.620;19.560;2023-07-22T03:30:05;19.10;98.20
43697;DHT22;29301;47.620;19.560;2023-07-22T03:32:34;19.00;98.60
43697;DHT22;29301;47.620;19.560;2023-07-22T03:35:00;18.90;99.70
43697;DHT22;29301;47.620;19.560;2023-07-22T03:37:27;18.80;99.90
43697;DHT22;29301;47.620;19.560;2023-07-22T03:39:53;18.80;99.90
43697;DHT22;29301;47.620;19.560;2023-07-22T03:42:19;18.80;99.90
43697;DHT22;29301;47.620;19.560;2023-07-22T03:44:44;18.90;99.90
43697;DHT22;29301;47.620;19.560;2023-07-22T03:47:10;18.90;99.90
43697;DHT22;29301;47.620;19.560;2023-07-22T03:49:35;18.80;99.90
43697;DHT22;29301;47.620;19.560;2023-07-22T03:52:01;18.80;99.90
43697;DHT22;29301;47.620;19.560;2023-07-22T03:54:27;18.80;99.90
43697;DHT22;29301;47.620;19.560;2023-07-22T03:56:52;18.80;99.90
43697;DHT22;29301;47.620;19.560;2023-07-22T03:59:18;18.90;99.90
43697;DHT22;29301;47.620;19.560;2023-07-22T04:01:43;19.00;99.90
43697;DHT22;29301;47.620;19.560;2023-07-22T04:04:09;19.10;99.90
43697;DHT22;29301;47.620;19.560;2023-07-22T04:06:35;19.10;99.90
43697;DHT22;29301;47.620;19.560;2023-07-22T04:09:00;19.20;99.90
43697;DHT22;29301;47.620;19.560;2023-07-22T04:11:26;19.20;99.90
43697;DHT22;29301;47.620;19.560;2023-07-22T04:13:53;19.20;99.80
43697;DHT22;29301;47.620;19.560;2023-07-22T04:16:19;19.20;99.90
43697;DHT22;29301;47.620;19.560;2023-07-22T04:18:44;19.20;99.90
43697;DHT22;29301;47.620;19.560;2023-07-22T04:21:10;19.20;99.90
43697;DHT22;29301;47.620;19.560;2023-07-22T04:23:35;19.20;99.90
43697;DHT22;29301;47.620;19.560;2023-07-22T04:26:03;19.30;99.90
43697;DHT22;29301;47.620;19.560;2023-07-22T04:28:34;19.30;99.90
43697;DHT22;29301;47.620;19.560;2023-07-22T04:31:00;19.30;99.90
43697;DHT22;29301;47.620;19.560;2023-07-22T04:33:26;19.30;99.90
43697;DHT22;29301;47.620;19.560;2023-07-22T04:35:58;19.40;99.90
43697;DHT22;29301;47.620;19.560;2023-07-22T04:38:24;19.40;99.90
43697;DHT22;29301;47.620;19.560;2023-07-22T04:40:49;19.50;99.90
43697;DHT22;29301;47.620;19.560;2023-07-22T04:43:15;19.50;99.90
43697;DHT22;29301;47.620;19.560;2023-07-22T04:45:41;19.50;99.90
43697;DHT22;29301;47.620;19.560;2023-07-22T04:48:07;19.40;99.90
43697;DHT22;29301;47.620;19.560;2023-07-22T04:50:33;19.50;99.90
43697;DHT22;29301;47.620;19.560;2023-07-22T04:52:59;19.60;99.90
43697;DHT22;29301;47.620;19.560;2023-07-22T04:55:24;19.60;99.90
43697;DHT22;29301;47.620;19.560;2023-07-22T04:57:51;19.70;99.90
43697;DHT22;29301;47.620;19.560;2023-07-22T05:00:17;19.70;99.90
43697;DHT22;29301;47.620;19.560;2023-07-22T05:02:46;19.70;99.90
43697;DHT22;29301;47.620;19.560;2023-07-22T05:05:15;19.70;99.90
43697;DHT22;29301;47.620;19.560;2023-07-22T05:07:41;19.70;99.90
43697;DHT22;29301;47.620;19.560;2023-07-22T05:10:08;19.60;99.90
43697;DHT22;29301;47.620;19.560;2023-07-22T05:12:38;19.60;99.90
43697;DHT22;29301;47.620;19.560;2023-07-22T05:15:05;19.60;99.90
43697;DHT22;29301;47.620;19.560;2023-07-22T05:17:31;19.70;99.90
43697;DHT22;29301;47.620;19.560;2023-07-22T05:19:57;19.70;99.90
43697;DHT22;29301;47.620;19.560;2023-07-22T05:22:23;19.70;99.90
43697;DHT22;29301;47.620;19.560;2023-07-22T05:24:49;19.70;99.90
43697;DHT22;29301;47.620;19.560;2023-07-22T05:27:16;19.80;99.90
43697;DHT22;29301;47.620;19.560;2023-07-22T05:29:41;19.80;99.90
43697;DHT22;29301;47.620;19.560;2023-07-22T05:32:07;19.80;99.90
43697;DHT22;29301;47.620;19.560;2023-07-22T05:34:33;19.80;99.90
43697;DHT22;29301;47.620;19.560;2023-07-22T05:36:59;20.00;99.90
43697;DHT22;29301;47.620;19.560;2023-07-22T05:39:24;20.00;99.90
43697;DHT22;29301;47.620;19.560;2023-07-22T05:41:50;20.10;99.90
43697;DHT22;29301;47.620;19.560;2023-07-22T05:44:16;20.10;99.90
43697;DHT22;29301;47.620;19.560;2023-07-22T05:46:42;20.10;99.90
43697;DHT22;29301;47.620;19.560;2023-07-22T05:49:08;20.10;99.90
43697;DHT22;29301;47.620;19.560;2023-07-22T05:51:34;20.10;99.90
43697;DHT22;29301;47.620;19.560;2023-07-22T05:53:59;20.10;99.90
43697;DHT22;29301;47.620;19.560;2023-07-22T05:56:25;20.20;99.90
43697;DHT22;29301;47.620;19.560;2023-07-22T05:58:51;20.10;99.90
43697;DHT22;29301;47.620;19.560;2023-07-22T06:01:17;20.20;99.90
43697;DHT22;29301;47.620;19.560;2023-07-22T06:03:42;20.20;99.90
43697;DHT22;29301;47.620;19.560;2023-07-22T06:06:09;20.30;99.90
43697;DHT22;29301;47.620;19.560;2023-07-22T06:08:35;20.40;99.90
43697;DHT22;29301;47.620;19.560;2023-07-22T06:11:01;20.50;99.90
43697;DHT22;29301;47.620;19.560;2023-07-22T06:13:26;20.40;99.90
43697;DHT22;29301;47.620;19.560;2023-07-22T06:15:52;20.50;99.50
43697;DHT22;29301;47.620;19.560;2023-07-22T06:18:18;20.40;99.00
43697;DHT22;29301;47.620;19.560;2023-07-22T06:20:47;20.40;99.90
43697;DHT22;29301;47.620;19.560;2023-07-22T06:23:12;20.50;99.90
43697;DHT22;29301;47.620;19.560;2023-07-22T06:25:38;20.50;99.90
43697;DHT22;29301;47.620;19.560;2023-07-22T06:28:04;20.60;99.90
43697;DHT22;29301;47.620;19.560;2023-07-22T06:30:30;20.70;99.90
43697;DHT22;29301;47.620;19.560;2023-07-22T06:32:55;20.70;99.50
43697;DHT22;29301;47.620;19.560;2023-07-22T06:35:21;20.70;99.40
43697;DHT22;29301;47.620;19.560;2023-07-22T06:37:47;20.70;99.00
43697;DHT22;29301;47.620;19.560;2023-07-22T06:40:13;20.60;99.10
43697;DHT22;29301;47.620;19.560;2023-07-22T06:42:38;20.80;98.90
43697;DHT22;29301;47.620;19.560;2023-07-22T06:45:04;20.90;98.10
43697;DHT22;29301;47.620;19.560;2023-07-22T06:47:30;21.00;97.80
43697;DHT22;29301;47.620;19.560;2023-07-22T06:49:56;21.20;96.90
43697;DHT22;29301;47.620;19.560;2023-07-22T06:52:22;21.40;94.10
43697;DHT22;29301;47.620;19.560;2023-07-22T06:54:48;21.60;93.70
43697;DHT22;29301;47.620;19.560;2023-07-22T06:57:14;21.90;92.00
43697;DHT22;29301;47.620;19.560;2023-07-22T06:59:39;22.00;89.90
43697;DHT22;29301;47.620;19.560;2023-07-22T07:02:05;22.10;89.40
43697;DHT22;29301;47.620;19.560;2023-07-22T07:04:31;22.30;87.40
43697;DHT22;29301;47.620;19.560;2023-07-22T07:06:57;22.50;84.50
43697;DHT22;29301;47.620;19.560;2023-07-22T07:09:22;22.70;81.10
43697;DHT22;29301;47.620;19.560;2023-07-22T07:11:48;22.70;80.60
43697;DHT22;29301;47.620;19.560;2023-07-22T07:14:14;22.80;79.50
43697;DHT22;29301;47.620;19.560;2023-07-22T07:16:39;22.90;80.30
43697;DHT22;29301;47.620;19.560;2023-07-22T07:19:05;23.10;79.40
43697;DHT22;29301;47.620;19.560;2023-07-22T07:21:31;23.20;77.80
43697;DHT22;29301;47.620;19.560;2023-07-22T07:23:57;23.30;75.30
43697;DHT22;29301;47.620;19.560;2023-07-22T07:26:23;23.50;74.50
43697;DHT22;29301;47.620;19.560;2023-07-22T07:28:49;23.70;73.10
43697;DHT22;29301;47.620;19.560;2023-07-22T07:31:18;23.80;71.20
43697;DHT22;29301;47.620;19.560;2023-07-22T07:33:44;23.90;72.40
43697;DHT22;29301;47.620;19.560;2023-07-22T07:36:10;24.10;71.30
43697;DHT22;29301;47.620;19.560;2023-07-22T07:38:35;24.30;69.60
43697;DHT22;29301;47.620;19.560;2023-07-22T07:41:06;24.50;69.70
43697;DHT22;29301;47.620;19.560;2023-07-22T07:43:42;24.60;66.80
43697;DHT22;29301;47.620;19.560;2023-07-22T07:46:23;24.80;67.60
43697;DHT22;29301;47.620;19.560;2023-07-22T07:48:51;25.00;66.60
43697;DHT22;29301;47.620;19.560;2023-07-22T07:51:18;25.20;65.30
43697;DHT22;29301;47.620;19.560;2023-07-22T07:53:45;25.30;63.10
43697;DHT22;29301;47.620;19.560;2023-07-22T07:56:12;25.30;62.80
43697;DHT22;29301;47.620;19.560;2023-07-22T07:58:38;25.40;62.20
43697;DHT22;29301;47.620;19.560;2023-07-22T08:01:04;25.40;62.80
43697;DHT22;29301;47.620;19.560;2023-07-22T08:03:30;25.50;62.10
43697;DHT22;29301;47.620;19.560;2023-07-22T08:05:56;25.60;62.10
43697;DHT22;29301;47.620;19.560;2023-07-22T08:08:22;25.80;60.20
43697;DHT22;29301;47.620;19.560;2023-07-22T08:10:57;25.80;61.70
43697;DHT22;29301;47.620;19.560;2023-07-22T08:13:22;26.00;61.80
43697;DHT22;29301;47.620;19.560;2023-07-22T08:15:48;26.30;59.90
43697;DHT22;29301;47.620;19.560;2023-07-22T08:18:14;26.30;57.40
43697;DHT22;29301;47.620;19.560;2023-07-22T08:20:39;26.20;57.80
43697;DHT22;29301;47.620;19.560;2023-07-22T08:23:05;26.20;57.00
43697;DHT22;29301;47.620;19.560;2023-07-22T08:25:31;26.20;57.70
43697;DHT22;29301;47.620;19.560;2023-07-22T08:27:57;26.20;56.60
43697;DHT22;29301;47.620;19.560;2023-07-22T08:30:22;26.20;57.60
43697;DHT22;29301;47.620;19.560;2023-07-22T08:32:48;26.30;55.70
43697;DHT22;29301;47.620;19.560;2023-07-22T08:35:13;26.40;55.70
43697;DHT22;29301;47.620;19.560;2023-07-22T08:37:42;26.40;53.90
43697;DHT22;29301;47.620;19.560;2023-07-22T08:40:08;26.40;54.10
43697;DHT22;29301;47.620;19.560;2023-07-22T08:42:35;26.50;54.30
43697;DHT22;29301;47.620;19.560;2023-07-22T08:45:04;26.50;53.60
43697;DHT22;29301;47.620;19.560;2023-07-22T08:47:32;26.60;54.60
43697;DHT22;29301;47.620;19.560;2023-07-22T08:50:01;26.80;54.90
43697;DHT22;29301;47.620;19.560;2023-07-22T08:52:30;26.80;54.40
43697;DHT22;29301;47.620;19.560;2023-07-22T08:54:56;26.80;54.30
43697;DHT22;29301;47.620;19.560;2023-07-22T08:57:22;26.70;54.00
43697;DHT22;29301;47.620;19.560;2023-07-22T08:59:49;26.60;54.70
43697;DHT22;29301;47.620;19.560;2023-07-22T09:02:15;26.50;54.10
43697;DHT22;29301;47.620;19.560;2023-07-22T09:04:41;26.50;54.00
43697;DHT22;29301;47.620;19.560;2023-07-22T09:07:08;26.50;53.30
43697;DHT22;29301;47.620;19.560;2023-07-22T09:09:34;26.70;51.90
43697;DHT22;29301;47.620;19.560;2023-07-22T09:12:01;26.90;51.40
43697;DHT22;29301;47.620;19.560;2023-07-22T09:14:28;27.20;50.70
43697;DHT22;29301;47.620;19.560;2023-07-22T09:16:57;27.40;51.40
43697;DHT22;29301;47.620;19.560;2023-07-22T09:19:22;27.60;48.50
43697;DHT22;29301;47.620;19.560;2023-07-22T09:21:48;27.70;48.30
43697;DHT22;29301;47.620;19.560;2023-07-22T09:24:22;27.90;48.40
43697;DHT22;29301;47.620;19.560;2023-07-22T09:26:48;28.00;46.80
43697;DHT22;29301;47.620;19.560;2023-07-22T09:29:14;28.00;46.40
43697;DHT22;29301;47.620;19.560;2023-07-22T09:31:51;28.00;46.90
43697;DHT22;29301;47.620;19.560;2023-07-22T09:34:16;27.80;45.30
43697;DHT22;29301;47.620;19.560;2023-07-22T09:36:55;27.60;45.60
43697;DHT22;29301;47.620;19.560;2023-07-22T09:39:21;27.60;47.20
43697;DHT22;29301;47.620;19.560;2023-07-22T09:41:47;27.60;45.80
43697;DHT22;29301;47.620;19.560;2023-07-22T09:44:13;27.60;45.80
43697;DHT22;29301;47.620;19.560;2023-07-22T09:46:39;27.80;45.80
43697;DHT22;29301;47.620;19.560;2023-07-22T09:49:08;27.70;43.40
43697;DHT22;29301;47.620;19.560;2023-07-22T09:51:38;27.70;42.80
43697;DHT22;29301;47.620;19.560;2023-07-22T09:54:04;27.70;42.10
43697;DHT22;29301;47.620;19.560;2023-07-22T09:56:31;27.60;41.90
43697;DHT22;29301;47.620;19.560;2023-07-22T09:59:04;27.70;42.50
43697;DHT22;29301;47.620;19.560;2023-07-22T10:01:31;27.70;42.50
43697;DHT22;29301;47.620;19.560;2023-07-22T10:03:57;27.90;41.80
43697;DHT22;29301;47.620;19.560;2023-07-22T10:06:28;27.80;40.70
43697;DHT22;29301;47.620;19.560;2023-07-22T10:09:04;27.70;39.30
43697;DHT22;29301;47.620;19.560;2023-07-22T10:11:34;27.80;40.50
43697;DHT22;29301;47.620;19.560;2023-07-22T10:14:02;27.90;38.80
43697;DHT22;29301;47.620;19.560;2023-07-22T10:16:28;28.00;39.70
43697;DHT22;29301;47.620;19.560;2023-07-22T10:18:54;27.90;37.80
43697;DHT22;29301;47.620;19.560;2023-07-22T10:21:21;27.90;37.90
43697;DHT22;29301;47.620;19.560;2023-07-22T10:23:47;27.90;37.80
43697;DHT22;29301;47.620;19.560;2023-07-22T10:26:18;28.00;37.30
43697;DHT22;29301;47.620;19.560;2023-07-22T10:28:47;28.10;38.10
43697;DHT22;29301;47.620;19.560;2023-07-22T10:31:14;28.30;37.70
43697;DHT22;29301;47.620;19.560;2023-07-22T10:33:46;28.30;35.30
43697;DHT22;29301;47.620;19.560;2023-07-22T10:36:16;28.30;35.30
43697;DHT22;29301;47.620;19.560;2023-07-22T10:38:43;28.40;36.20
43697;DHT22;29301;47.620;19.560;2023-07-22T10:41:16;28.30;35.60
43697;DHT22;29301;47.620;19.560;2023-07-22T10:43:52;28.20;34.60
43697;DHT22;29301;47.620;19.560;2023-07-22T10:49:12;28.30;35.40
43697;DHT22;29301;47.620;19.560;2023-07-22T10:51:38;28.40;35.50
43697;DHT22;29301;47.620;19.560;2023-07-22T10:54:14;28.50;35.70
43697;DHT22;29301;47.620;19.560;2023-07-22T10:56:43;28.70;35.30
43697;DHT22;29301;47.620;19.560;2023-07-22T10:59:12;28.60;35.50
43697;DHT22;29301;47.620;19.560;2023-07-22T11:01:44;28.50;33.00
43697;DHT22;29301;47.620;19.560;2023-07-22T11:12:05;28.70;33.20
43697;DHT22;29301;47.620;19.560;2023-07-22T11:14:39;28.70;32.20
43697;DHT22;29301;47.620;19.560;2023-07-22T11:17:06;28.70;32.60
43697;DHT22;29301;47.620;19.560;2023-07-22T11:19:36;28.80;33.20
43697;DHT22;29301;47.620;19.560;2023-07-22T11:22:02;28.80;33.60
43697;DHT22;29301;47.620;19.560;2023-07-22T11:24:29;29.00;32.60
43697;DHT22;29301;47.620;19.560;2023-07-22T11:26:55;29.00;32.60
43697;DHT22;29301;47.620;19.560;2023-07-22T11:29:21;29.00;32.50
43697;DHT22;29301;47.620;19.560;2023-07-22T11:31:48;29.00;30.60
43697;DHT22;29301;47.620;19.560;2023-07-22T11:34:16;29.10;30.50
43697;DHT22;29301;47.620;19.560;2023-07-22T11:36:42;29.10;32.10
43697;DHT22;29301;47.620;19.560;2023-07-22T11:39:11;29.20;31.70
43697;DHT22;29301;47.620;19.560;2023-07-22T11:41:38;29.30;31.30
43697;DHT22;29301;47.620;19.560;2023-07-22T11:44:05;29.30;31.30
43697;DHT22;29301;47.620;19.560;2023-07-22T11:52:01;29.30;29.50
43697;DHT22;29301;47.620;19.560;2023-07-22T11:54:28;29.20;30.20
43697;DHT22;29301;47.620;19.560;2023-07-22T11:56:55;29.20;29.30
43697;DHT22;29301;47.620;19.560;2023-07-22T11:59:35;29.20;30.10
43697;DHT22;29301;47.620;19.560;2023-07-22T12:02:01;29.40;29.70
43697;DHT22;29301;47.620;19.560;2023-07-22T12:04:28;29.30;29.60
43697;DHT22;29301;47.620;19.560;2023-07-22T12:06:54;29.30;29.30
43697;DHT22;29301;47.620;19.560;2023-07-22T12:09:19;29.30;29.60
43697;DHT22;29301;47.620;19.560;2023-07-22T12:11:45;29.20;29.40
43697;DHT22;29301;47.620;19.560;2023-07-22T12:14:12;29.30;29.50
43697;DHT22;29301;47.620;19.560;2023-07-22T12:16:40;29.40;29.20
43697;DHT22;29301;47.620;19.560;2023-07-22T12:19:07;29.40;28.80
43697;DHT22;29301;47.620;19.560;2023-07-22T12:21:33;29.50;28.60
43697;DHT22;29301;47.620;19.560;2023-07-22T12:23:59;29.40;28.30
43697;DHT22;29301;47.620;19.560;2023-07-22T12:26:25;29.50;28.30
43697;DHT22;29301;47.620;19.560;2023-07-22T12:28:51;29.60;28.30
43697;DHT22;29301;47.620;19.560;2023-07-22T12:31:17;29.40;27.90
43697;DHT22;29301;47.620;19.560;2023-07-22T12:33:42;29.00;28.60
43697;DHT22;29301;47.620;19.560;2023-07-22T12:36:08;28.90;28.60
43697;DHT22;29301;47.620;19.560;2023-07-22T12:38:34;29.10;28.40
43697;DHT22;29301;47.620;19.560;2023-07-22T12:41:00;29.20;27.90
43697;DHT22;29301;47.620;19.560;2023-07-22T12:43:26;29.30;28.30
43697;DHT22;29301;47.620;19.560;2023-07-22T12:45:52;29.40;28.50
43697;DHT22;29301;47.620;19.560;2023-07-22T12:48:18;29.60;28.40
43697;DHT22;29301;47.620;19.560;2023-07-22T12:50:44;29.60;28.00
43697;DHT22;29301;47.620;19.560;2023-07-22T12:53:10;29.60;28.10
43697;DHT22;29301;47.620;19.560;2023-07-22T12:55:36;29.60;26.90
43697;DHT22;29301;47.620;19.560;2023-07-22T12:58:01;29.30;26.80
43697;DHT22;29301;47.620;19.560;2023-07-22T13:00:28;29.20;27.30
43697;DHT22;29301;47.620;19.560;2023-07-22T13:02:54;29.10;27.10
43697;DHT22;29301;47.620;19.560;2023-07-22T13:05:19;29.20;27.50
43697;DHT22;29301;47.620;19.560;2023-07-22T13:07:45;29.20;27.10
43697;DHT22;29301;47.620;19.560;2023-07-22T13:10:16;29.20;27.30
43697;DHT22;29301;47.620;19.560;2023-07-22T13:12:48;29.30;27.70
43697;DHT22;29301;47.620;19.560;2023-07-22T13:15:14;29.40;26.80
43697;DHT22;29301;47.620;19.560;2023-07-22T13:17:40;29.40;26.30
43697;DHT22;29301;47.620;19.560;2023-07-22T13:20:06;29.40;25.90
43697;DHT22;29301;47.620;19.560;2023-07-22T13:22:33;29.30;26.50
43697;DHT22;29301;47.620;19.560;2023-07-22T13:24:58;29.30;26.10
43697;DHT22;29301;47.620;19.560;2023-07-22T13:27:24;29.30;26.20
43697;DHT22;29301;47.620;19.560;2023-07-22T13:29:50;29.20;26.50
43697;DHT22;29301;47.620;19.560;2023-07-22T13:32:15;29.20;26.40
43697;DHT22;29301;47.620;19.560;2023-07-22T13:34:41;29.20;26.00
43697;DHT22;29301;47.620;19.560;2023-07-22T13:37:06;29.20;26.10
43697;DHT22;29301;47.620;19.560;2023-07-22T13:39:32;29.20;26.20
43697;DHT22;29301;47.620;19.560;2023-07-22T13:41:59;29.30;25.40
43697;DHT22;29301;47.620;19.560;2023-07-22T13:44:24;29.10;26.20
43697;DHT22;29301;47.620;19.560;2023-07-22T13:46:50;29.10;26.80
43697;DHT22;29301;47.620;19.560;2023-07-22T13:49:15;29.20;26.50
43697;DHT22;29301;47.620;19.560;2023-07-22T13:51:41;29.30;25.90
43697;DHT22;29301;47.620;19.560;2023-07-22T13:54:07;29.30;26.10
43697;DHT22;29301;47.620;19.560;2023-07-22T13:56:32;29.30;25.00
43697;DHT22;29301;47.620;19.560;2023-07-22T13:59:00;29.30;25.40
43697;DHT22;29301;47.620;19.560;2023-07-22T14:01:26;29.30;25.80
43697;DHT22;29301;47.620;19.560;2023-07-22T14:03:53;29.30;26.50
43697;DHT22;29301;47.620;19.560;2023-07-22T14:06:18;29.20;25.80
43697;DHT22;29301;47.620;19.560;2023-07-22T14:08:44;29.30;25.80
43697;DHT22;29301;47.620;19.560;2023-07-22T14:11:09;29.20;25.30
43697;DHT22;29301;47.620;19.560;2023-07-22T14:13:35;29.10;26.00
43697;DHT22;29301;47.620;19.560;2023-07-22T14:16:02;29.10;26.00
43697;DHT22;29301;47.620;19.560;2023-07-22T14:18:29;29.20;26.20
43697;DHT22;29301;47.620;19.560;2023-07-22T14:20:54;29.20;26.50
43697;DHT22;29301;47.620;19.560;2023-07-22T14:23:20;29.30;25.30
43697;DHT22;29301;47.620;19.560;2023-07-22T14:25:46;29.20;25.20
43697;DHT22;29301;47.620;19.560;2023-07-22T14:28:11;29.20;24.80
43697;DHT22;29301;47.620;19.560;2023-07-22T14:30:37;29.10;24.40
43697;DHT22;29301;47.620;19.560;2023-07-22T14:33:02;29.10;24.90
43697;DHT22;29301;47.620;19.560;2023-07-22T14:35:28;29.10;25.00
43697;DHT22;29301;47.620;19.560;2023-07-22T14:37:54;29.20;25.30
43697;DHT22;29301;47.620;19.560;2023-07-22T14:40:19;29.20;25.50
43697;DHT22;29301;47.620;19.560;2023-07-22T14:42:45;29.20;25.60
43697;DHT22;29301;47.620;19.560;2023-07-22T14:45:11;29.20;25.20
43697;DHT22;29301;47.620;19.560;2023-07-22T14:47:36;29.10;25.30
43697;DHT22;29301;47.620;19.560;2023-07-22T14:50:02;29.00;25.20
43697;DHT22;29301;47.620;19.560;2023-07-22T14:52:28;29.00;25.10
43697;DHT22;29301;47.620;19.560;2023-07-22T14:54:54;28.90;25.50
43697;DHT22;29301;47.620;19.560;2023-07-22T14:57:19;28.80;25.90
43697;DHT22;29301;47.620;19.560;2023-07-22T14:59:45;28.80;25.80
43697;DHT22;29301;47.620;19.560;2023-07-22T15:02:12;28.70;25.60
43697;DHT22;29301;47.620;19.560;2023-07-22T15:04:37;28.70;25.20
43697;DHT22;29301;47.620;19.560;2023-07-22T15:07:03;28.70;25.50
43697;DHT22;29301;47.620;19.560;2023-07-22T15:09:29;28.80;25.40
43697;DHT22;29301;47.620;19.560;2023-07-22T15:11:55;28.80;25.20
43697;DHT22;29301;47.620;19.560;2023-07-22T15:14:21;28.80;25.20
43697;DHT22;29301;47.620;19.560;2023-07-22T15:16:47;28.80;24.20
43697;DHT22;29301;47.620;19.560;2023-07-22T15:19:13;28.70;23.90
43697;DHT22;29301;47.620;19.560;2023-07-22T15:21:38;28.70;23.70
43697;DHT22;29301;47.620;19.560;2023-07-22T15:24:05;28.60;24.10
43697;DHT22;29301;47.620;19.560;2023-07-22T15:26:30;28.60;23.80
43697;DHT22;29301;47.620;19.560;2023-07-22T15:28:56;28.60;23.80